createdAt,value
2017-05-07T00:00:06.619Z,10.03
2017-05-07T00:10:06.545Z,10.03
2017-05-07T00:20:06.549Z,9.89
2017-05-07T00:30:06.561Z,9.78
2017-05-07T00:40:06.538Z,9.67
2017-05-07T00:50:06.545Z,9.71
2017-05-07T01:00:06.533Z,9.86
2017-05-07T01:10:06.546Z,9.86
2017-05-07T01:20:06.595Z,9.97
2017-05-07T01:30:06.539Z,9.78
2017-05-07T01:40:06.577Z,9.79
2017-05-07T01:50:06.538Z,9.76
2017-05-07T02:00:06.570Z,9.83
2017-05-07T02:10:06.544Z,9.73
2017-05-07T02:20:06.554Z,9.76
2017-05-07T02:30:06.549Z,9.67
2017-05-07T02:40:06.552Z,9.78
2017-05-07T02:50:06.517Z,9.63
2017-05-07T03:00:06.519Z,9.58
2017-05-07T03:10:06.600Z,9.5
2017-05-07T03:20:06.519Z,9.48
2017-05-07T03:30:06.536Z,9.52
2017-05-07T03:40:06.514Z,9.5
2017-05-07T03:50:06.514Z,9.68
2017-05-07T04:00:06.525Z,9.63
2017-05-07T04:10:06.506Z,9.68
2017-05-07T04:20:06.528Z,9.88
2017-05-07T04:30:06.523Z,10.17
2017-05-07T04:40:06.507Z,10.37
2017-05-07T04:50:06.513Z,10.68
2017-05-07T05:00:06.497Z,10.95
2017-05-07T05:10:06.509Z,11.47
2017-05-07T05:20:06.509Z,11.82
2017-05-07T05:30:06.502Z,12.04
2017-05-07T05:40:06.515Z,11.97
2017-05-07T05:50:06.518Z,11.96
2017-05-07T06:00:06.512Z,12.06
2017-05-07T06:10:06.497Z,12.19
2017-05-07T06:20:06.503Z,12.46
2017-05-07T06:30:06.513Z,12.38
2017-05-07T06:40:06.509Z,12.7
2017-05-07T06:50:06.517Z,13
2017-05-07T07:00:06.505Z,13.62
2017-05-07T07:10:06.502Z,13.95
2017-05-07T07:20:06.497Z,14.25
2017-05-07T07:30:06.507Z,14.53
2017-05-07T07:40:06.502Z,14.52
2017-05-07T07:50:06.509Z,14.39
2017-05-07T08:00:06.494Z,14.86
2017-05-07T08:10:06.519Z,15.49
2017-05-07T08:20:06.513Z,16.12
2017-05-07T08:30:06.516Z,16.45
2017-05-07T08:40:06.509Z,16.58
2017-05-07T08:50:06.633Z,16.27
2017-05-07T09:00:07.797Z,16.23
2017-05-07T09:10:06.524Z,16.67
2017-05-07T09:20:06.787Z,16.35
2017-05-07T09:30:06.523Z,17.17
2017-05-07T09:40:06.499Z,18.61
2017-05-07T09:50:06.526Z,19.13
2017-05-07T10:00:06.591Z,20
2017-05-07T10:10:06.770Z,20.74
2017-05-07T10:20:07.389Z,21.32
2017-05-07T10:30:06.527Z,21.45
2017-05-07T10:40:06.525Z,21.9
2017-05-07T10:50:06.604Z,22.07
2017-05-07T11:00:06.527Z,21.41
2017-05-07T11:10:06.777Z,21.14
2017-05-07T11:20:06.550Z,22.02
2017-05-07T11:30:06.537Z,22.2
2017-05-07T11:40:06.572Z,21.75
2017-05-07T11:50:07.377Z,22.04
2017-05-07T12:00:06.642Z,22.49
2017-05-07T12:10:06.675Z,20.72
2017-05-07T12:20:06.620Z,20
2017-05-07T12:30:06.568Z,20.1
2017-05-07T12:40:07.679Z,20.15
2017-05-07T12:50:06.580Z,20.69
2017-05-07T13:00:06.620Z,21.11
2017-05-07T13:10:06.588Z,21.48
2017-05-07T13:20:06.552Z,22.01
2017-05-07T13:30:06.569Z,22.02
2017-05-07T13:40:06.604Z,22.16
2017-05-07T13:50:06.616Z,22.13
2017-05-07T14:00:06.597Z,22.2
2017-05-07T14:10:06.578Z,22.19
2017-05-07T14:20:06.631Z,21.74
2017-05-07T14:30:06.573Z,21.57
2017-05-07T14:40:06.598Z,21.81
2017-05-07T14:50:06.565Z,21.83
2017-05-07T15:00:06.590Z,21.48
2017-05-07T15:10:06.575Z,21.69
2017-05-07T15:20:06.584Z,21.23
2017-05-07T15:30:06.594Z,20.98
2017-05-07T15:40:06.643Z,20.23
2017-05-07T15:50:06.595Z,19.95
2017-05-07T16:00:06.604Z,19.54
2017-05-07T16:10:06.581Z,19.54
2017-05-07T16:20:06.658Z,19.39
2017-05-07T16:30:06.613Z,19.13
2017-05-07T16:40:06.584Z,19.05
2017-05-07T16:50:06.614Z,18.97
2017-05-07T17:00:06.594Z,18.62
2017-05-07T17:10:06.600Z,18.49
2017-05-07T17:20:06.627Z,18.09
2017-05-07T17:30:06.592Z,17.82
2017-05-07T17:40:06.601Z,17.43
2017-05-07T17:50:06.631Z,17.1
2017-05-07T18:00:06.608Z,16.74
2017-05-07T18:10:06.618Z,16.63
2017-05-07T18:20:06.583Z,16.35
2017-05-07T18:30:06.576Z,16.12
2017-05-07T18:40:06.661Z,16
2017-05-07T18:50:06.752Z,15.94
2017-05-07T19:00:06.702Z,15.78
2017-05-07T19:10:06.638Z,15.59
2017-05-07T19:20:07.325Z,15.36
2017-05-07T19:30:06.630Z,14.94
2017-05-07T19:40:06.666Z,14.65
2017-05-07T19:50:06.639Z,14.28
2017-05-07T20:00:06.615Z,14.06
2017-05-07T20:10:06.619Z,13.8
2017-05-07T20:20:06.793Z,13.69
2017-05-07T20:30:06.632Z,13.51
2017-05-07T20:40:06.635Z,13.27
2017-05-07T20:50:06.620Z,12.95
2017-05-07T21:00:06.597Z,12.75
2017-05-07T21:10:06.641Z,12.6
2017-05-07T21:20:06.804Z,12.34
2017-05-07T21:30:06.632Z,12.01
2017-05-07T21:40:06.780Z,11.86
2017-05-07T21:50:06.615Z,11.64
2017-05-07T22:00:06.588Z,11.34
2017-05-07T22:10:06.609Z,11.03
2017-05-07T22:20:06.658Z,11.25
2017-05-07T22:30:06.619Z,11.13
2017-05-07T22:40:06.644Z,11.01
2017-05-07T22:50:06.645Z,10.81
2017-05-07T23:00:06.746Z,10.71
2017-05-07T23:10:06.657Z,10.78
2017-05-07T23:20:06.707Z,10.42
2017-05-07T23:30:06.776Z,10.07
2017-05-07T23:40:06.666Z,9.66
2017-05-07T23:50:06.789Z,9.63
